Station info - map view · info · telemetry · weather · raw · status · beacons · messages · bulletins · browse · moving · my account
Callsign, ship name or locator: Clear       
It is possible to search using wildcards (*?) after a prefix. Example: OH*
APRS station SQ9MTY-8 - show graphs
Map loading...
Comment: Bart 145.400 with VX-8G *73!*LIPO4000mah
Mic-E message: Custom 0
Location: 50°16.82' N 19°01.35' E - locator JO90MG27QG - show map - static map
1.5 miles North bearing 352° from Katowice, Silesian Voivodeship, Poland [?]
5.6 miles North bearing 350° from Murcki, Katowice, Silesian Voivodeship, Poland
41.8 miles West bearing 289° from Kraków, Lesser Poland Voivodeship, Poland
Last position: 2019-11-10 14:25:34 EST (4d 19h53m ago)
2019-11-10 20:25:34 CET local time at Katowice, Poland [?]
Altitude: 925 ft
Course: 241°
Speed: 17 MPH
Device: Yaesu: VX-8G (ht)
Last path: SQ9MTY-8>FABV82 via WIDE1-1,WIDE2-1,qAR,SR9NDX (good)
Positions stored: 1242
Packet rate: 224 seconds between packets on average during 8519 seconds.
Other SSIDs: SQ9MTY-5 SQ9MTY-7 SQ9MTY-9
Stations near current position of SQ9MTY-8 - show more
callsign distance last heard - EST      callsign distance last heard - EST
SQ9ONZ-9135.7 yards 253°2019-11-07 01:56:23 SQ9ONZ448.4 yards 18°2019-11-05 08:52:47
HF9P-90.4 miles 321°2019-11-11 07:16:10 SP9UVG-DP1.1 miles 130°2019-11-10 01:45:34
SP9DLM-91.1 miles 186°2019-11-15 06:56:02 ER-SR9SS1.4 miles 327°2019-11-15 10:18:08
SR9NDX1.4 miles 328°2019-11-11 07:17:32 ER-SR9E1.4 miles 328°2019-11-15 10:18:22
SR9SZ-R1.5 miles 328°2019-11-11 07:17:02 SR9DKA2.0 miles 303°2019-11-15 10:15:11
SP9SP2.3 miles 276°2019-11-10 15:17:15 SP9SP-22.4 miles 277°2019-11-07 10:05:52
SR9DMR2.5 miles 175°2019-11-15 10:10:41 SP9UVG B2.5 miles 103°2019-11-06 01:58:44
SP9UVG-B2.5 miles 103°2019-11-06 01:58:54 SP9UVG-N2.5 miles 103°2019-11-07 14:32:46
SP9SDZ-52.8 miles 174°2019-11-12 04:08:31 FW57742.8 miles 171°2019-11-15 10:15:06
SQ9ORN2.9 miles 204°2019-11-06 00:44:39 SP9SDJ3.5 miles 280°2019-11-15 10:07:46
Stations which heard SQ9MTY-8 directly on radio –
callsign pkts first heard - EST last heard longest (tx => rx) longest at - EST
ON0ABT 3 2019-11-09 22:58:25 2019-11-09 23:00:32 JO11QC > JO11PC 1.7 miles 275° 2019-11-09 23:00:32
SR6NWS 6 2019-11-10 12:03:35 2019-11-10 12:40:43 JO80PT > JO80FQ 36.7 miles 254° 2019-11-10 12:40:43
DB0GER 2 2019-11-10 08:52:45 2019-11-10 08:53:46 JO60BV > JO60BV 1.5 miles 278° 2019-11-10 08:53:46
DB0RIE 1 2019-11-10 08:07:02 2019-11-10 08:07:02 JO50MV > JO50NV 4.7 miles 113° 2019-11-10 08:07:02
DB0SDA 1 2019-11-10 00:55:19 2019-11-10 00:55:19 JO30AT > JO30AS 3.9 miles 145° 2019-11-10 00:55:19
DB0NY 1 2019-11-10 04:55:57 2019-11-10 04:55:57 JO30TX > JO31TB 6.1 miles 348° 2019-11-10 04:55:57
SR9NDX 21 2019-11-10 14:04:27 2019-11-10 14:25:34 JO90MG > JO90MH 2.1 miles 336° 2019-11-10 14:05:37
SQ6NDL 2 2019-11-10 13:17:55 2019-11-10 13:23:09 JO90CL > JO90DM 7.6 miles 59° 2019-11-10 13:17:55
DB0ESA 1 2019-11-10 07:35:44 2019-11-10 07:35:44 JO51DA > JO50DX 2.1 miles 220° 2019-11-10 07:35:44
DB0KWE 2 2019-11-10 04:01:03 2019-11-10 04:02:10 JO30EU > JO30DU 2.0 miles 275° 2019-11-10 04:02:10
DB0HDF 1 2019-11-10 08:41:11 2019-11-10 08:41:11 JO50WV > JO50WV 1.8 miles 350° 2019-11-10 08:41:11
DK3RW-2 2 2019-11-10 06:24:00 2019-11-10 06:28:13 JO40MR > JO40LQ 4.4 miles 227° 2019-11-10 06:28:13
DO3EF-10 4 2019-11-10 06:25:33 2019-11-10 06:30:18 JO40NR > JO40MQ 3.6 miles 239° 2019-11-10 06:30:18
DL6DA 1 2019-11-10 05:25:59 2019-11-10 05:25:59 JO40AU > JO40AV 4.7 miles 13° 2019-11-10 05:25:59
DB0LDK 4 2019-11-10 05:54:06 2019-11-10 06:15:35 JO40JO > JO40GM 13.5 miles 246° 2019-11-10 06:15:35
DG1JLA-3 4 2019-11-10 09:24:56 2019-11-10 09:28:06 JO60MW > JO60LV 2.7 miles 247° 2019-11-10 09:28:06
DO4DR-10 3 2019-11-10 09:07:01 2019-11-10 09:11:31 JO60FT > JO60GT 3.6 miles 89° 2019-11-10 09:07:01
DG7FDL-10 2 2019-11-10 07:08:35 2019-11-10 07:09:13 JO40UU > JO40UU 2.0 miles 303° 2019-11-10 07:09:13
DB1CD-10 2 2019-11-10 00:53:44 2019-11-10 00:54:47 JO30AT > JO30BT 3.0 miles 92° 2019-11-10 00:53:44
DB0REI-10 2 2019-11-10 06:19:14 2019-11-10 06:20:18 JO40KO > JO40KO 0.7 miles 66° 2019-11-10 06:19:14
DB0INS 2 2019-11-10 07:50:33 2019-11-10 07:52:08 JO50HV > JO50FU 8.3 miles 242° 2019-11-10 07:52:08
DB0ADD 2 2019-11-10 10:04:26 2019-11-10 10:07:34 JO61UC > JO61UA 5.6 miles 173° 2019-11-10 10:07:34
F1ZKY-1 1 2019-11-09 22:22:24 2019-11-09 22:22:24 JO11EA > JO10EX 1.1 miles 194° 2019-11-09 22:22:24
DB0PIB-10 2 2019-11-10 10:34:14 2019-11-10 10:35:17 JO71EE > JO71EC 5.7 miles 199° 2019-11-10 10:35:17
DB0JEN 2 2019-11-10 08:29:40 2019-11-10 08:30:11 JO50TU > JO50TU 1.4 miles 102° 2019-11-10 08:29:40
ON0TVO 7 2019-11-09 23:07:23 2019-11-09 23:15:58 JO11SB > JO11UB 6.3 miles 95° 2019-11-09 23:07:23

Only position packets which were originated by the station are shown here. The range statistics show some extra long hops, because some digipeaters do not correctly add themselves to the digipeater path. Please check the raw packets.
About this site
This page shows real-time information collected from the Automatic Position Reporting System Internet network (APRS-IS). APRS is used by amateur (ham) radio operators to transmit real-time position information, weather data, telemetry and messages over the radio. A vehicle equipped with a GPS receiver, a VHF transmitter or HF transceiver and a small computer device called a tracker transmits it's location, speed and course in a small data packet, which is then received by a nearby iGate receiving site which forwards the packet on the Internet. Systems connected to the Internet can send information on the APRS-IS without a radio transmitter, or collect and display information transmitted anywhere in the world.
User guide · FAQ · Blog · Discussion group · Linking to aprs.fi · AIS sites · Service status · Database statistics · Advertising on aprs.fi · Technical details · API · Change log · Planned changes · Credits and thanks · Terms Of Service · iPhone/iPad APRS